sensor_id;sensor_type;location;lat;lon;timestamp;P1;durP1;ratioP1;P2;durP2;ratioP2
74363;SDS011;62797;49.740;10.154;2023-05-21T00:02:15;25.85;;;16.58;;
74363;SDS011;62797;49.740;10.154;2023-05-21T00:04:45;30.83;;;16.55;;
74363;SDS011;62797;49.740;10.154;2023-05-21T00:07:12;24.75;;;15.45;;
74363;SDS011;62797;49.740;10.154;2023-05-21T00:09:39;24.67;;;15.77;;
74363;SDS011;62797;49.740;10.154;2023-05-21T00:12:08;28.80;;;16.38;;
74363;SDS011;62797;49.740;10.154;2023-05-21T00:14:34;24.10;;;15.80;;
74363;SDS011;62797;49.740;10.154;2023-05-21T00:17:00;26.48;;;15.80;;
74363;SDS011;62797;49.740;10.154;2023-05-21T00:19:26;26.02;;;17.63;;
74363;SDS011;62797;49.740;10.154;2023-05-21T00:21:52;24.98;;;15.90;;
74363;SDS011;62797;49.740;10.154;2023-05-21T00:26:44;24.33;;;13.25;;
74363;SDS011;62797;49.740;10.154;2023-05-21T00:29:10;27.02;;;15.43;;
74363;SDS011;62797;49.740;10.154;2023-05-21T00:31:36;26.20;;;16.65;;
74363;SDS011;62797;49.740;10.154;2023-05-21T00:34:02;23.43;;;15.13;;
74363;SDS011;62797;49.740;10.154;2023-05-21T00:36:27;26.37;;;16.00;;
74363;SDS011;62797;49.740;10.154;2023-05-21T00:38:55;25.15;;;15.25;;
74363;SDS011;62797;49.740;10.154;2023-05-21T00:41:21;23.27;;;14.07;;
74363;SDS011;62797;49.740;10.154;2023-05-21T00:43:46;26.17;;;17.37;;
74363;SDS011;62797;49.740;10.154;2023-05-21T00:46:14;24.80;;;16.13;;
74363;SDS011;62797;49.740;10.154;2023-05-21T00:48:43;29.35;;;15.68;;
74363;SDS011;62797;49.740;10.154;2023-05-21T00:51:10;25.15;;;15.80;;
74363;SDS011;62797;49.740;10.154;2023-05-21T00:53:39;24.25;;;14.15;;
74363;SDS011;62797;49.740;10.154;2023-05-21T00:56:06;28.13;;;14.82;;
74363;SDS011;62797;49.740;10.154;2023-05-21T00:58:33;23.02;;;15.38;;
74363;SDS011;62797;49.740;10.154;2023-05-21T01:00:59;20.08;;;14.07;;
74363;SDS011;62797;49.740;10.154;2023-05-21T01:03:34;21.05;;;14.20;;
74363;SDS011;62797;49.740;10.154;2023-05-21T01:06:06;22.40;;;14.32;;
74363;SDS011;62797;49.740;10.154;2023-05-21T01:08:33;29.20;;;16.30;;
74363;SDS011;62797;49.740;10.154;2023-05-21T01:11:05;22.58;;;14.88;;
74363;SDS011;62797;49.740;10.154;2023-05-21T01:13:32;25.70;;;15.65;;
74363;SDS011;62797;49.740;10.154;2023-05-21T01:16:01;20.55;;;14.77;;
74363;SDS011;62797;49.740;10.154;2023-05-21T01:18:31;26.63;;;16.48;;
74363;SDS011;62797;49.740;10.154;2023-05-21T01:20:59;27.48;;;15.35;;
74363;SDS011;62797;49.740;10.154;2023-05-21T01:23:26;29.83;;;16.70;;
74363;SDS011;62797;49.740;10.154;2023-05-21T01:28:18;23.02;;;14.55;;
74363;SDS011;62797;49.740;10.154;2023-05-21T01:30:44;25.47;;;14.33;;
74363;SDS011;62797;49.740;10.154;2023-05-21T01:33:12;24.98;;;15.23;;
74363;SDS011;62797;49.740;10.154;2023-05-21T01:38:13;24.02;;;15.93;;
74363;SDS011;62797;49.740;10.154;2023-05-21T01:43:24;24.60;;;16.35;;
74363;SDS011;62797;49.740;10.154;2023-05-21T01:45:54;21.65;;;14.32;;
74363;SDS011;62797;49.740;10.154;2023-05-21T01:48:22;24.83;;;15.48;;
74363;SDS011;62797;49.740;10.154;2023-05-21T01:50:49;24.23;;;16.42;;
74363;SDS011;62797;49.740;10.154;2023-05-21T01:53:20;26.20;;;14.88;;
74363;SDS011;62797;49.740;10.154;2023-05-21T01:55:46;24.23;;;14.15;;
74363;SDS011;62797;49.740;10.154;2023-05-21T01:58:12;21.77;;;12.77;;
74363;SDS011;62797;49.740;10.154;2023-05-21T02:00:40;25.08;;;15.52;;
74363;SDS011;62797;49.740;10.154;2023-05-21T02:03:06;26.48;;;15.55;;
74363;SDS011;62797;49.740;10.154;2023-05-21T02:05:33;19.98;;;13.02;;
74363;SDS011;62797;49.740;10.154;2023-05-21T02:07:59;23.58;;;15.00;;
74363;SDS011;62797;49.740;10.154;2023-05-21T02:10:26;24.88;;;15.05;;
74363;SDS011;62797;49.740;10.154;2023-05-21T02:12:52;24.55;;;15.20;;
74363;SDS011;62797;49.740;10.154;2023-05-21T02:15:18;22.67;;;14.65;;
74363;SDS011;62797;49.740;10.154;2023-05-21T02:17:46;26.50;;;15.77;;
74363;SDS011;62797;49.740;10.154;2023-05-21T02:20:15;23.85;;;14.35;;
74363;SDS011;62797;49.740;10.154;2023-05-21T02:22:45;27.55;;;13.55;;
74363;SDS011;62797;49.740;10.154;2023-05-21T02:25:12;23.25;;;15.38;;
74363;SDS011;62797;49.740;10.154;2023-05-21T02:27:40;29.65;;;16.63;;
74363;SDS011;62797;49.740;10.154;2023-05-21T02:30:07;22.65;;;14.98;;
74363;SDS011;62797;49.740;10.154;2023-05-21T02:32:35;28.42;;;14.30;;
74363;SDS011;62797;49.740;10.154;2023-05-21T02:35:01;27.63;;;16.35;;
74363;SDS011;62797;49.740;10.154;2023-05-21T02:37:28;25.33;;;14.55;;
74363;SDS011;62797;49.740;10.154;2023-05-21T02:39:58;25.60;;;14.77;;
74363;SDS011;62797;49.740;10.154;2023-05-21T02:42:25;23.20;;;14.10;;
74363;SDS011;62797;49.740;10.154;2023-05-21T02:44:51;24.02;;;12.98;;
74363;SDS011;62797;49.740;10.154;2023-05-21T02:47:18;22.02;;;14.43;;
74363;SDS011;62797;49.740;10.154;2023-05-21T02:49:45;22.92;;;12.93;;
74363;SDS011;62797;49.740;10.154;2023-05-21T02:52:11;18.77;;;13.15;;
74363;SDS011;62797;49.740;10.154;2023-05-21T02:54:37;24.05;;;15.18;;
74363;SDS011;62797;49.740;10.154;2023-05-21T02:57:03;24.90;;;17.73;;
74363;SDS011;62797;49.740;10.154;2023-05-21T02:59:29;22.23;;;14.38;;
74363;SDS011;62797;49.740;10.154;2023-05-21T03:01:55;20.75;;;12.85;;
74363;SDS011;62797;49.740;10.154;2023-05-21T03:04:20;22.60;;;14.57;;
74363;SDS011;62797;49.740;10.154;2023-05-21T03:06:46;22.13;;;14.43;;
74363;SDS011;62797;49.740;10.154;2023-05-21T03:09:16;19.35;;;12.95;;
74363;SDS011;62797;49.740;10.154;2023-05-21T03:11:41;26.92;;;13.75;;
74363;SDS011;62797;49.740;10.154;2023-05-21T03:14:07;19.33;;;13.40;;
74363;SDS011;62797;49.740;10.154;2023-05-21T03:16:34;23.17;;;12.88;;
74363;SDS011;62797;49.740;10.154;2023-05-21T03:19:00;18.15;;;12.05;;
74363;SDS011;62797;49.740;10.154;2023-05-21T03:21:26;23.23;;;15.37;;
74363;SDS011;62797;49.740;10.154;2023-05-21T03:23:55;28.55;;;15.15;;
74363;SDS011;62797;49.740;10.154;2023-05-21T03:26:25;24.25;;;13.77;;
74363;SDS011;62797;49.740;10.154;2023-05-21T03:28:52;25.80;;;12.98;;
74363;SDS011;62797;49.740;10.154;2023-05-21T03:31:18;23.00;;;14.32;;
74363;SDS011;62797;49.740;10.154;2023-05-21T03:34:04;20.15;;;13.15;;
74363;SDS011;62797;49.740;10.154;2023-05-21T03:36:31;20.50;;;12.65;;
74363;SDS011;62797;49.740;10.154;2023-05-21T03:38:57;18.25;;;11.32;;
74363;SDS011;62797;49.740;10.154;2023-05-21T03:41:22;21.53;;;13.70;;
74363;SDS011;62797;49.740;10.154;2023-05-21T03:43:53;22.35;;;13.13;;
74363;SDS011;62797;49.740;10.154;2023-05-21T03:46:22;28.70;;;14.32;;
74363;SDS011;62797;49.740;10.154;2023-05-21T03:49:02;21.75;;;13.73;;
74363;SDS011;62797;49.740;10.154;2023-05-21T03:51:30;20.13;;;13.95;;
74363;SDS011;62797;49.740;10.154;2023-05-21T03:53:56;23.55;;;13.95;;
74363;SDS011;62797;49.740;10.154;2023-05-21T03:56:24;27.40;;;14.73;;
74363;SDS011;62797;49.740;10.154;2023-05-21T04:01:17;20.17;;;13.55;;
74363;SDS011;62797;49.740;10.154;2023-05-21T04:03:45;27.50;;;13.93;;
74363;SDS011;62797;49.740;10.154;2023-05-21T04:06:12;18.95;;;13.73;;
74363;SDS011;62797;49.740;10.154;2023-05-21T04:08:38;20.90;;;14.02;;
74363;SDS011;62797;49.740;10.154;2023-05-21T04:11:04;20.77;;;13.90;;
74363;SDS011;62797;49.740;10.154;2023-05-21T04:13:30;20.03;;;12.77;;
74363;SDS011;62797;49.740;10.154;2023-05-21T04:15:56;19.67;;;14.40;;
74363;SDS011;62797;49.740;10.154;2023-05-21T04:18:21;21.27;;;14.50;;
74363;SDS011;62797;49.740;10.154;2023-05-21T04:20:50;19.20;;;12.93;;
74363;SDS011;62797;49.740;10.154;2023-05-21T04:23:16;18.20;;;13.13;;
74363;SDS011;62797;49.740;10.154;2023-05-21T04:25:43;21.63;;;14.50;;
74363;SDS011;62797;49.740;10.154;2023-05-21T04:28:08;21.10;;;12.43;;
74363;SDS011;62797;49.740;10.154;2023-05-21T04:30:35;17.20;;;12.05;;
74363;SDS011;62797;49.740;10.154;2023-05-21T04:33:02;18.63;;;11.65;;
74363;SDS011;62797;49.740;10.154;2023-05-21T04:35:27;19.08;;;11.70;;
74363;SDS011;62797;49.740;10.154;2023-05-21T04:37:53;17.27;;;13.17;;
74363;SDS011;62797;49.740;10.154;2023-05-21T04:40:19;23.40;;;12.20;;
74363;SDS011;62797;49.740;10.154;2023-05-21T04:42:48;18.52;;;12.63;;
74363;SDS011;62797;49.740;10.154;2023-05-21T04:45:15;17.75;;;12.80;;
74363;SDS011;62797;49.740;10.154;2023-05-21T04:47:46;23.90;;;13.50;;
74363;SDS011;62797;49.740;10.154;2023-05-21T04:50:12;17.90;;;12.40;;
74363;SDS011;62797;49.740;10.154;2023-05-21T04:52:38;20.75;;;13.77;;
74363;SDS011;62797;49.740;10.154;2023-05-21T04:57:31;26.08;;;13.57;;
74363;SDS011;62797;49.740;10.154;2023-05-21T04:59:58;20.65;;;13.10;;
74363;SDS011;62797;49.740;10.154;2023-05-21T05:02:25;19.23;;;12.98;;
74363;SDS011;62797;49.740;10.154;2023-05-21T05:04:50;19.20;;;13.07;;
74363;SDS011;62797;49.740;10.154;2023-05-21T05:07:16;17.92;;;12.25;;
74363;SDS011;62797;49.740;10.154;2023-05-21T05:09:42;17.63;;;12.57;;
74363;SDS011;62797;49.740;10.154;2023-05-21T05:12:08;19.83;;;11.67;;
74363;SDS011;62797;49.740;10.154;2023-05-21T05:14:33;19.27;;;12.90;;
74363;SDS011;62797;49.740;10.154;2023-05-21T05:17:00;20.05;;;13.35;;
74363;SDS011;62797;49.740;10.154;2023-05-21T05:19:26;17.30;;;12.05;;
74363;SDS011;62797;49.740;10.154;2023-05-21T05:21:52;16.02;;;11.10;;
74363;SDS011;62797;49.740;10.154;2023-05-21T05:24:19;24.25;;;14.38;;
74363;SDS011;62797;49.740;10.154;2023-05-21T05:26:45;18.80;;;11.55;;
74363;SDS011;62797;49.740;10.154;2023-05-21T05:29:12;21.40;;;14.88;;
74363;SDS011;62797;49.740;10.154;2023-05-21T05:31:38;20.85;;;13.80;;
74363;SDS011;62797;49.740;10.154;2023-05-21T05:34:04;16.67;;;12.68;;
74363;SDS011;62797;49.740;10.154;2023-05-21T05:36:30;17.47;;;12.83;;
74363;SDS011;62797;49.740;10.154;2023-05-21T05:38:56;17.25;;;11.57;;
74363;SDS011;62797;49.740;10.154;2023-05-21T05:41:22;19.00;;;13.90;;
74363;SDS011;62797;49.740;10.154;2023-05-21T05:43:48;17.52;;;13.18;;
74363;SDS011;62797;49.740;10.154;2023-05-21T05:46:15;15.40;;;11.82;;
74363;SDS011;62797;49.740;10.154;2023-05-21T05:48:41;20.23;;;11.97;;
74363;SDS011;62797;49.740;10.154;2023-05-21T05:51:07;18.40;;;12.02;;
74363;SDS011;62797;49.740;10.154;2023-05-21T05:53:33;17.48;;;11.95;;
74363;SDS011;62797;49.740;10.154;2023-05-21T05:55:59;16.77;;;11.90;;
74363;SDS011;62797;49.740;10.154;2023-05-21T05:58:25;16.75;;;12.30;;
74363;SDS011;62797;49.740;10.154;2023-05-21T06:01:02;20.17;;;11.85;;
74363;SDS011;62797;49.740;10.154;2023-05-21T06:03:28;17.48;;;12.48;;
74363;SDS011;62797;49.740;10.154;2023-05-21T06:05:55;19.98;;;11.75;;
74363;SDS011;62797;49.740;10.154;2023-05-21T06:08:22;24.63;;;13.90;;
74363;SDS011;62797;49.740;10.154;2023-05-21T06:10:48;18.42;;;12.93;;
74363;SDS011;62797;49.740;10.154;2023-05-21T06:13:14;17.63;;;11.98;;
74363;SDS011;62797;49.740;10.154;2023-05-21T06:15:40;16.40;;;11.83;;
74363;SDS011;62797;49.740;10.154;2023-05-21T06:18:08;19.55;;;12.52;;
74363;SDS011;62797;49.740;10.154;2023-05-21T06:20:35;23.92;;;13.45;;
74363;SDS011;62797;49.740;10.154;2023-05-21T06:25:27;14.88;;;11.25;;
74363;SDS011;62797;49.740;10.154;2023-05-21T06:27:53;19.33;;;13.90;;
74363;SDS011;62797;49.740;10.154;2023-05-21T06:30:23;20.58;;;13.25;;
74363;SDS011;62797;49.740;10.154;2023-05-21T06:32:49;23.45;;;12.52;;
74363;SDS011;62797;49.740;10.154;2023-05-21T06:35:15;18.20;;;11.93;;
74363;SDS011;62797;49.740;10.154;2023-05-21T06:37:41;18.35;;;11.60;;
74363;SDS011;62797;49.740;10.154;2023-05-21T06:40:07;15.27;;;11.90;;
74363;SDS011;62797;49.740;10.154;2023-05-21T06:42:34;15.98;;;11.10;;
74363;SDS011;62797;49.740;10.154;2023-05-21T06:45:19;16.92;;;11.32;;
74363;SDS011;62797;49.740;10.154;2023-05-21T06:47:45;18.65;;;11.27;;
74363;SDS011;62797;49.740;10.154;2023-05-21T06:50:10;19.48;;;13.10;;
74363;SDS011;62797;49.740;10.154;2023-05-21T06:52:36;15.73;;;11.00;;
74363;SDS011;62797;49.740;10.154;2023-05-21T06:55:02;14.38;;;10.95;;
74363;SDS011;62797;49.740;10.154;2023-05-21T06:57:46;13.48;;;10.45;;
74363;SDS011;62797;49.740;10.154;2023-05-21T07:00:12;16.30;;;11.00;;
74363;SDS011;62797;49.740;10.154;2023-05-21T07:02:38;16.38;;;11.68;;
74363;SDS011;62797;49.740;10.154;2023-05-21T07:05:05;18.65;;;11.77;;
74363;SDS011;62797;49.740;10.154;2023-05-21T07:07:31;14.85;;;11.18;;
74363;SDS011;62797;49.740;10.154;2023-05-21T07:09:59;19.20;;;11.90;;
74363;SDS011;62797;49.740;10.154;2023-05-21T07:12:25;14.00;;;9.98;;
74363;SDS011;62797;49.740;10.154;2023-05-21T07:14:50;13.90;;;10.23;;
74363;SDS011;62797;49.740;10.154;2023-05-21T07:17:16;16.10;;;10.00;;
74363;SDS011;62797;49.740;10.154;2023-05-21T07:19:42;13.80;;;10.20;;
74363;SDS011;62797;49.740;10.154;2023-05-21T07:22:07;14.07;;;10.82;;
74363;SDS011;62797;49.740;10.154;2023-05-21T07:24:33;18.23;;;10.63;;
74363;SDS011;62797;49.740;10.154;2023-05-21T07:26:59;15.23;;;10.07;;
74363;SDS011;62797;49.740;10.154;2023-05-21T07:29:25;17.15;;;11.13;;
74363;SDS011;62797;49.740;10.154;2023-05-21T07:31:50;15.57;;;10.50;;
74363;SDS011;62797;49.740;10.154;2023-05-21T07:34:16;16.52;;;10.27;;
74363;SDS011;62797;49.740;10.154;2023-05-21T07:36:42;15.43;;;10.35;;
74363;SDS011;62797;49.740;10.154;2023-05-21T07:39:07;14.15;;;9.90;;
74363;SDS011;62797;49.740;10.154;2023-05-21T07:41:34;17.30;;;11.13;;
74363;SDS011;62797;49.740;10.154;2023-05-21T07:44:04;16.77;;;10.93;;
74363;SDS011;62797;49.740;10.154;2023-05-21T07:46:33;17.02;;;10.52;;
74363;SDS011;62797;49.740;10.154;2023-05-21T07:48:59;19.92;;;12.23;;
74363;SDS011;62797;49.740;10.154;2023-05-21T07:51:26;15.70;;;10.68;;
74363;SDS011;62797;49.740;10.154;2023-05-21T07:56:22;12.05;;;9.73;;
74363;SDS011;62797;49.740;10.154;2023-05-21T07:58:49;16.15;;;11.38;;
74363;SDS011;62797;49.740;10.154;2023-05-21T08:01:14;15.15;;;9.68;;
74363;SDS011;62797;49.740;10.154;2023-05-21T08:06:06;14.95;;;9.95;;
74363;SDS011;62797;49.740;10.154;2023-05-21T08:08:34;13.82;;;11.10;;
74363;SDS011;62797;49.740;10.154;2023-05-21T08:11:00;14.70;;;10.65;;
74363;SDS011;62797;49.740;10.154;2023-05-21T08:13:26;16.58;;;11.07;;
74363;SDS011;62797;49.740;10.154;2023-05-21T08:15:52;17.33;;;12.02;;
74363;SDS011;62797;49.740;10.154;2023-05-21T08:18:19;17.20;;;10.75;;
74363;SDS011;62797;49.740;10.154;2023-05-21T08:20:48;14.63;;;10.02;;
74363;SDS011;62797;49.740;10.154;2023-05-21T08:23:16;13.45;;;10.75;;
74363;SDS011;62797;49.740;10.154;2023-05-21T08:25:47;15.05;;;9.88;;
74363;SDS011;62797;49.740;10.154;2023-05-21T08:28:13;13.68;;;10.10;;
74363;SDS011;62797;49.740;10.154;2023-05-21T08:30:39;21.55;;;11.15;;
74363;SDS011;62797;49.740;10.154;2023-05-21T08:33:05;24.58;;;10.70;;
74363;SDS011;62797;49.740;10.154;2023-05-21T08:35:32;13.48;;;8.77;;
74363;SDS011;62797;49.740;10.154;2023-05-21T08:38:14;14.77;;;9.30;;
74363;SDS011;62797;49.740;10.154;2023-05-21T08:40:56;12.85;;;10.07;;
74363;SDS011;62797;49.740;10.154;2023-05-21T08:43:23;13.88;;;9.93;;
74363;SDS011;62797;49.740;10.154;2023-05-21T08:45:55;14.25;;;9.35;;
74363;SDS011;62797;49.740;10.154;2023-05-21T08:48:26;17.73;;;10.55;;
74363;SDS011;62797;49.740;10.154;2023-05-21T08:50:53;14.90;;;10.68;;
74363;SDS011;62797;49.740;10.154;2023-05-21T08:53:24;14.90;;;9.55;;
74363;SDS011;62797;49.740;10.154;2023-05-21T08:55:52;17.65;;;10.23;;
74363;SDS011;62797;49.740;10.154;2023-05-21T08:58:20;18.90;;;9.85;;
74363;SDS011;62797;49.740;10.154;2023-05-21T09:00:47;16.63;;;10.07;;
74363;SDS011;62797;49.740;10.154;2023-05-21T09:03:14;14.90;;;10.00;;
74363;SDS011;62797;49.740;10.154;2023-05-21T09:05:42;24.08;;;10.88;;
74363;SDS011;62797;49.740;10.154;2023-05-21T09:08:26;15.35;;;10.68;;
74363;SDS011;62797;49.740;10.154;2023-05-21T09:11:29;16.05;;;10.27;;
74363;SDS011;62797;49.740;10.154;2023-05-21T09:13:57;14.02;;;10.02;;
74363;SDS011;62797;49.740;10.154;2023-05-21T09:16:53;15.55;;;9.52;;
74363;SDS011;62797;49.740;10.154;2023-05-21T09:19:19;15.88;;;10.23;;
74363;SDS011;62797;49.740;10.154;2023-05-21T09:21:46;12.98;;;10.48;;
74363;SDS011;62797;49.740;10.154;2023-05-21T09:24:19;17.17;;;9.13;;
74363;SDS011;62797;49.740;10.154;2023-05-21T09:26:47;15.50;;;9.95;;
74363;SDS011;62797;49.740;10.154;2023-05-21T09:29:13;11.45;;;8.25;;
74363;SDS011;62797;49.740;10.154;2023-05-21T09:31:42;12.25;;;8.43;;
74363;SDS011;62797;49.740;10.154;2023-05-21T09:34:12;17.00;;;9.43;;
74363;SDS011;62797;49.740;10.154;2023-05-21T09:36:39;14.30;;;9.52;;
74363;SDS011;62797;49.740;10.154;2023-05-21T09:39:05;12.82;;;8.75;;
74363;SDS011;62797;49.740;10.154;2023-05-21T09:41:32;15.68;;;9.55;;
74363;SDS011;62797;49.740;10.154;2023-05-21T09:44:00;12.68;;;10.02;;
74363;SDS011;62797;49.740;10.154;2023-05-21T09:46:27;12.55;;;9.07;;
74363;SDS011;62797;49.740;10.154;2023-05-21T09:49:05;13.75;;;9.02;;
74363;SDS011;62797;49.740;10.154;2023-05-21T09:51:31;14.63;;;9.57;;
74363;SDS011;62797;49.740;10.154;2023-05-21T09:53:57;14.90;;;8.30;;
74363;SDS011;62797;49.740;10.154;2023-05-21T09:56:23;11.35;;;8.25;;
74363;SDS011;62797;49.740;10.154;2023-05-21T09:58:51;10.13;;;7.68;;
74363;SDS011;62797;49.740;10.154;2023-05-21T10:01:21;12.43;;;8.13;;
74363;SDS011;62797;49.740;10.154;2023-05-21T10:03:55;12.15;;;8.60;;
74363;SDS011;62797;49.740;10.154;2023-05-21T10:06:25;17.30;;;9.07;;
74363;SDS011;62797;49.740;10.154;2023-05-21T10:08:53;14.98;;;8.52;;
74363;SDS011;62797;49.740;10.154;2023-05-21T10:11:22;12.52;;;9.85;;
74363;SDS011;62797;49.740;10.154;2023-05-21T10:14:00;11.43;;;8.82;;
74363;SDS011;62797;49.740;10.154;2023-05-21T10:16:31;15.30;;;9.07;;
74363;SDS011;62797;49.740;10.154;2023-05-21T10:18:59;12.30;;;8.32;;
74363;SDS011;62797;49.740;10.154;2023-05-21T10:21:25;10.77;;;7.70;;
74363;SDS011;62797;49.740;10.154;2023-05-21T10:23:52;16.13;;;9.63;;
74363;SDS011;62797;49.740;10.154;2023-05-21T10:26:20;13.90;;;9.43;;
74363;SDS011;62797;49.740;10.154;2023-05-21T10:28:50;16.10;;;8.95;;
74363;SDS011;62797;49.740;10.154;2023-05-21T10:31:16;12.25;;;7.93;;
74363;SDS011;62797;49.740;10.154;2023-05-21T10:33:43;13.48;;;8.88;;
74363;SDS011;62797;49.740;10.154;2023-05-21T10:36:08;10.80;;;7.95;;
74363;SDS011;62797;49.740;10.154;2023-05-21T10:38:36;10.10;;;7.80;;
74363;SDS011;62797;49.740;10.154;2023-05-21T10:41:02;8.98;;;7.35;;
74363;SDS011;62797;49.740;10.154;2023-05-21T10:43:37;11.80;;;8.93;;
74363;SDS011;62797;49.740;10.154;2023-05-21T10:51:33;15.95;;;8.77;;
74363;SDS011;62797;49.740;10.154;2023-05-21T10:59:45;23.45;;;11.02;;
74363;SDS011;62797;49.740;10.154;2023-05-21T11:02:12;12.20;;;8.10;;
74363;SDS011;62797;49.740;10.154;2023-05-21T11:04:43;12.82;;;9.55;;
74363;SDS011;62797;49.740;10.154;2023-05-21T11:07:10;11.57;;;8.98;;
74363;SDS011;62797;49.740;10.154;2023-05-21T11:09:37;13.40;;;9.15;;
74363;SDS011;62797;49.740;10.154;2023-05-21T11:14:30;14.15;;;9.48;;
74363;SDS011;62797;49.740;10.154;2023-05-21T11:16:59;12.88;;;8.13;;
74363;SDS011;62797;49.740;10.154;2023-05-21T11:19:39;13.02;;;9.23;;
74363;SDS011;62797;49.740;10.154;2023-05-21T11:22:21;18.60;;;11.90;;
74363;SDS011;62797;49.740;10.154;2023-05-21T11:24:49;15.50;;;8.98;;
74363;SDS011;62797;49.740;10.154;2023-05-21T11:30:07;12.45;;;8.88;;
74363;SDS011;62797;49.740;10.154;2023-05-21T11:32:38;13.55;;;8.43;;
74363;SDS011;62797;49.740;10.154;2023-05-21T11:35:05;20.63;;;8.80;;
74363;SDS011;62797;49.740;10.154;2023-05-21T11:37:32;11.15;;;8.60;;
74363;SDS011;62797;49.740;10.154;2023-05-21T11:42:50;12.18;;;8.25;;
74363;SDS011;62797;49.740;10.154;2023-05-21T11:45:18;11.43;;;8.02;;
74363;SDS011;62797;49.740;10.154;2023-05-21T11:47:45;13.10;;;7.82;;
74363;SDS011;62797;49.740;10.154;2023-05-21T11:50:12;13.85;;;8.82;;
74363;SDS011;62797;49.740;10.154;2023-05-21T11:52:39;9.70;;;8.32;;
74363;SDS011;62797;49.740;10.154;2023-05-21T11:55:06;11.77;;;8.70;;
74363;SDS011;62797;49.740;10.154;2023-05-21T11:57:33;11.07;;;8.20;;
74363;SDS011;62797;49.740;10.154;2023-05-21T11:59:59;9.88;;;7.75;;
74363;SDS011;62797;49.740;10.154;2023-05-21T12:02:29;10.73;;;7.78;;
74363;SDS011;62797;49.740;10.154;2023-05-21T12:04:56;14.10;;;8.10;;
74363;SDS011;62797;49.740;10.154;2023-05-21T12:07:25;8.68;;;7.60;;
74363;SDS011;62797;49.740;10.154;2023-05-21T12:09:55;11.88;;;8.90;;
74363;SDS011;62797;49.740;10.154;2023-05-21T12:17:15;11.70;;;7.88;;
74363;SDS011;62797;49.740;10.154;2023-05-21T12:19:43;9.73;;;7.28;;
74363;SDS011;62797;49.740;10.154;2023-05-21T12:22:10;11.63;;;7.70;;
74363;SDS011;62797;49.740;10.154;2023-05-21T12:24:37;10.68;;;7.53;;
74363;SDS011;62797;49.740;10.154;2023-05-21T12:27:04;30.30;;;7.78;;
74363;SDS011;62797;49.740;10.154;2023-05-21T12:29:35;10.95;;;7.00;;
74363;SDS011;62797;49.740;10.154;2023-05-21T12:32:06;10.25;;;7.57;;
74363;SDS011;62797;49.740;10.154;2023-05-21T12:37:22;12.35;;;8.82;;
74363;SDS011;62797;49.740;10.154;2023-05-21T12:39:53;9.95;;;6.68;;
74363;SDS011;62797;49.740;10.154;2023-05-21T12:42:26;12.00;;;8.73;;
74363;SDS011;62797;49.740;10.154;2023-05-21T12:45:00;8.30;;;6.32;;
74363;SDS011;62797;49.740;10.154;2023-05-21T12:47:33;12.40;;;7.03;;
74363;SDS011;62797;49.740;10.154;2023-05-21T12:50:00;10.85;;;7.15;;
74363;SDS011;62797;49.740;10.154;2023-05-21T12:52:27;9.63;;;6.30;;
74363;SDS011;62797;49.740;10.154;2023-05-21T12:54:55;15.93;;;7.32;;
74363;SDS011;62797;49.740;10.154;2023-05-21T12:59:58;9.77;;;7.82;;
74363;SDS011;62797;49.740;10.154;2023-05-21T13:02:25;13.05;;;7.90;;
74363;SDS011;62797;49.740;10.154;2023-05-21T13:04:56;12.27;;;7.97;;
74363;SDS011;62797;49.740;10.154;2023-05-21T13:07:27;11.07;;;7.18;;
74363;SDS011;62797;49.740;10.154;2023-05-21T13:09:54;12.07;;;8.65;;
74363;SDS011;62797;49.740;10.154;2023-05-21T13:12:22;10.00;;;7.28;;
74363;SDS011;62797;49.740;10.154;2023-05-21T13:14:50;10.35;;;8.48;;
74363;SDS011;62797;49.740;10.154;2023-05-21T13:17:17;10.77;;;8.25;;
74363;SDS011;62797;49.740;10.154;2023-05-21T13:19:48;8.70;;;7.22;;
74363;SDS011;62797;49.740;10.154;2023-05-21T13:22:40;10.73;;;7.82;;
74363;SDS011;62797;49.740;10.154;2023-05-21T13:25:08;9.38;;;7.72;;
74363;SDS011;62797;49.740;10.154;2023-05-21T13:27:35;13.68;;;8.75;;
74363;SDS011;62797;49.740;10.154;2023-05-21T13:30:01;12.13;;;6.95;;
74363;SDS011;62797;49.740;10.154;2023-05-21T13:32:27;11.85;;;8.65;;
74363;SDS011;62797;49.740;10.154;2023-05-21T13:34:52;11.18;;;8.57;;
74363;SDS011;62797;49.740;10.154;2023-05-21T13:37:18;14.13;;;10.98;;
74363;SDS011;62797;49.740;10.154;2023-05-21T13:39:45;9.20;;;8.18;;
74363;SDS011;62797;49.740;10.154;2023-05-21T13:42:11;11.80;;;7.95;;
74363;SDS011;62797;49.740;10.154;2023-05-21T13:47:03;12.18;;;8.23;;
74363;SDS011;62797;49.740;10.154;2023-05-21T13:49:29;12.90;;;8.60;;
74363;SDS011;62797;49.740;10.154;2023-05-21T13:54:22;13.27;;;7.40;;
74363;SDS011;62797;49.740;10.154;2023-05-21T13:56:48;16.92;;;11.65;;
74363;SDS011;62797;49.740;10.154;2023-05-21T13:59:14;19.20;;;11.27;;
74363;SDS011;62797;49.740;10.154;2023-05-21T14:01:40;14.15;;;9.30;;
74363;SDS011;62797;49.740;10.154;2023-05-21T14:04:06;12.98;;;8.23;;
74363;SDS011;62797;49.740;10.154;2023-05-21T14:06:32;11.15;;;8.35;;
74363;SDS011;62797;49.740;10.154;2023-05-21T14:08:58;14.40;;;9.20;;
74363;SDS011;62797;49.740;10.154;2023-05-21T14:11:25;14.90;;;8.68;;
74363;SDS011;62797;49.740;10.154;2023-05-21T14:13:52;10.48;;;8.52;;
74363;SDS011;62797;49.740;10.154;2023-05-21T14:16:18;11.48;;;8.82;;
74363;SDS011;62797;49.740;10.154;2023-05-21T14:18:46;13.68;;;9.50;;
74363;SDS011;62797;49.740;10.154;2023-05-21T14:21:12;13.25;;;7.60;;
74363;SDS011;62797;49.740;10.154;2023-05-21T14:23:38;11.32;;;8.00;;
74363;SDS011;62797;49.740;10.154;2023-05-21T14:26:06;12.88;;;8.55;;
74363;SDS011;62797;49.740;10.154;2023-05-21T14:30:57;10.35;;;7.90;;
74363;SDS011;62797;49.740;10.154;2023-05-21T14:35:49;10.80;;;7.68;;
74363;SDS011;62797;49.740;10.154;2023-05-21T14:38:14;10.77;;;7.40;;
74363;SDS011;62797;49.740;10.154;2023-05-21T14:43:06;7.97;;;6.25;;
74363;SDS011;62797;49.740;10.154;2023-05-21T14:45:34;12.15;;;7.78;;
74363;SDS011;62797;49.740;10.154;2023-05-21T14:50:36;11.05;;;7.35;;
74363;SDS011;62797;49.740;10.154;2023-05-21T14:53:06;10.23;;;8.25;;
74363;SDS011;62797;49.740;10.154;2023-05-21T14:55:33;12.80;;;7.60;;
74363;SDS011;62797;49.740;10.154;2023-05-21T14:58:00;10.35;;;7.38;;
74363;SDS011;62797;49.740;10.154;2023-05-21T15:00:28;8.18;;;6.43;;
74363;SDS011;62797;49.740;10.154;2023-05-21T15:02:57;15.80;;;7.40;;
74363;SDS011;62797;49.740;10.154;2023-05-21T15:07:49;8.02;;;6.95;;
74363;SDS011;62797;49.740;10.154;2023-05-21T15:10:15;9.88;;;7.15;;
74363;SDS011;62797;49.740;10.154;2023-05-21T15:15:07;12.80;;;7.47;;
74363;SDS011;62797;49.740;10.154;2023-05-21T15:17:34;9.15;;;6.90;;
74363;SDS011;62797;49.740;10.154;2023-05-21T15:22:28;8.65;;;6.35;;
74363;SDS011;62797;49.740;10.154;2023-05-21T15:24:57;8.50;;;6.43;;
74363;SDS011;62797;49.740;10.154;2023-05-21T15:27:23;10.60;;;6.43;;
74363;SDS011;62797;49.740;10.154;2023-05-21T15:32:15;9.77;;;7.05;;
74363;SDS011;62797;49.740;10.154;2023-05-21T15:34:42;9.15;;;6.97;;